Time;durP1;ratioP1;P1;durP2;ratioP2;P2;SDS_P1;SDS_P2;PMS_P1;PMS_P2;Temp;Humidity;BMP_temperature;BMP_pressure;BME280_temperature;BME280_humidity;BME280_pressure;Samples;Min_cycle;Max_cycle;Signal;HPM_P1;HPM_P2
2022/06/14 00:03:07;;;;;;;7.03;5.03;;;;;;;12.80;81.24;102086.19;5032836;28;20436;-44
2022/06/14 00:05:41;;;;;;;7.97;4.60;;;;;;;12.80;81.47;102095.06;5032651;28;20429;-45
2022/06/14 00:08:09;;;;;;;11.50;4.77;;;;;;;12.79;80.72;102082.66;5032231;28;20486;-50
2022/06/14 00:10:37;;;;;;;7.20;4.13;;;;;;;12.80;81.09;102086.19;5032249;28;20432;-46
2022/06/14 00:13:07;;;;;;;5.00;3.93;;;;;;;12.81;81.36;102086.03;5032578;28;20443;-45
2022/06/14 00:15:35;;;;;;;9.27;5.47;;;;;;;12.81;80.94;102080.66;5032566;28;20860;-46
2022/06/14 00:18:03;;;;;;;10.60;4.90;;;;;;;12.81;80.77;102085.19;5032148;28;20848;-45
2022/06/14 00:24:17;;;;;;;9.63;4.17;;;;;;;12.80;80.90;102092.38;5032317;28;20399;-47
2022/06/14 00:26:45;;;;;;;6.53;4.70;;;;;;;12.80;80.56;102080.84;5032174;28;20979;-47
2022/06/14 00:29:13;;;;;;;7.70;3.73;;;;;;;12.78;80.50;102084.50;5031761;28;21030;-45
2022/06/14 00:31:41;;;;;;;8.47;4.70;;;;;;;12.77;80.17;102082.03;5031667;28;20486;-46
2022/06/14 00:34:09;;;;;;;10.03;5.50;;;;;;;12.74;80.22;102080.53;5032247;28;20984;-48
2022/06/14 00:36:36;;;;;;;7.70;4.00;;;;;;;12.77;80.80;102088.22;5032240;28;20769;-46
2022/06/14 00:39:06;;;;;;;7.93;4.13;;;;;;;12.78;80.73;102091.72;5031578;28;20971;-49
2022/06/14 00:41:38;;;;;;;15.70;4.00;;;;;;;12.79;80.54;102085.34;5031787;28;20456;-46
2022/06/14 00:44:11;;;;;;;5.77;4.63;;;;;;;12.82;80.52;102086.84;5031970;28;20436;-48
2022/06/14 00:46:49;;;;;;;4.33;3.40;;;;;;;12.81;80.02;102090.53;5032209;28;20519;-45
2022/06/14 00:49:20;;;;;;;5.13;3.80;;;;;;;12.79;80.03;102082.66;5031594;28;20463;-46
2022/06/14 00:51:53;;;;;;;8.97;3.73;;;;;;;12.76;79.78;102083.88;5031681;28;20453;-44
2022/06/14 00:54:25;;;;;;;8.80;4.10;;;;;;;12.78;79.90;102081.84;5031830;28;20443;-47
2022/06/14 00:56:56;;;;;;;8.97;3.60;;;;;;;12.79;79.40;102082.66;5031707;28;20443;-48
2022/06/14 00:59:27;;;;;;;8.60;4.07;;;;;;;12.80;79.75;102083.50;5031266;28;20550;-50
2022/06/14 01:02:07;;;;;;;8.80;4.07;;;;;;;12.80;79.08;102081.66;5031657;28;20459;-49
2022/06/14 01:04:36;;;;;;;4.77;3.23;;;;;;;12.80;78.98;102078.16;5031892;28;20432;-50
2022/06/14 01:07:10;;;;;;;6.10;3.40;;;;;;;12.77;78.54;102082.88;5030905;28;20435;-46
2022/06/14 01:09:43;;;;;;;12.27;3.60;;;;;;;12.77;78.16;102084.69;5031963;28;20805;-44
2022/06/14 01:12:14;;;;;;;7.50;3.33;;;;;;;12.78;78.64;102091.72;5031355;28;20983;-45
2022/06/14 01:14:48;;;;;;;5.87;3.73;;;;;;;12.80;78.07;102091.53;5031593;28;20953;-50
2022/06/14 01:17:17;;;;;;;6.57;4.03;;;;;;;12.80;77.79;102084.34;5031154;28;20925;-45
2022/06/14 01:19:45;;;;;;;9.57;3.90;;;;;;;12.78;77.51;102092.53;5031428;28;20446;-45
2022/06/14 01:22:25;;;;;;;9.67;4.17;;;;;;;12.80;77.75;102087.03;5031521;28;20460;-47
2022/06/14 01:24:53;;;;;;;8.80;4.73;;;;;;;12.76;76.18;102089.22;5021157;28;20421;-48
2022/06/14 01:27:23;;;;;;;5.00;3.40;;;;;;;12.76;76.35;102085.72;5029866;28;20463;-48
2022/06/14 01:30:00;;;;;;;6.50;3.80;;;;;;;12.77;76.46;102082.03;5031393;28;20798;-47
2022/06/14 01:32:31;;;;;;;5.43;4.07;;;;;;;12.76;76.02;102083.03;5026785;28;20460;-45
2022/06/14 01:35:02;;;;;;;5.10;3.83;;;;;;;12.73;75.04;102088.75;5026841;28;20472;-46
2022/06/14 01:37:31;;;;;;;5.03;4.40;;;;;;;12.71;75.19;102080.06;5031116;28;20460;-47
2022/06/14 01:40:00;;;;;;;4.47;3.83;;;;;;;12.73;75.07;102076.19;5031395;28;20459;-45
2022/06/14 01:42:38;;;;;;;6.30;4.07;;;;;;;12.74;75.69;102085.91;5031075;28;20462;-45
2022/06/14 01:45:11;;;;;;;9.60;4.40;;;;;;;12.73;75.53;102084.22;5031637;28;20428;-44
2022/06/14 01:47:48;;;;;;;7.23;4.10;;;;;;;12.72;76.03;102087.09;5031031;28;20474;-44
2022/06/14 01:53:22;;;;;;;8.70;4.53;;;;;;;12.71;76.59;102088.94;5031239;28;20933;-45
2022/06/14 01:55:55;;;;;;;6.33;4.10;;;;;;;12.72;76.64;102082.53;5031320;28;20475;-47
2022/06/14 01:58:27;;;;;;;8.20;4.33;;;;;;;12.69;76.43;102088.25;5030731;28;20460;-48
2022/06/14 02:01:03;;;;;;;4.33;3.50;;;;;;;12.69;76.74;102085.56;5030965;28;20531;-46
2022/06/14 02:06:34;;;;;;;8.20;4.00;;;;;;;12.62;77.16;102087.31;5031137;28;20431;-47
2022/06/14 02:09:11;;;;;;;7.53;4.37;;;;;;;12.61;77.56;102090.16;5030827;28;20838;-45
2022/06/14 02:11:39;;;;;;;7.00;4.07;;;;;;;12.59;77.70;102092.19;5030749;28;20451;-44
2022/06/14 02:14:14;;;;;;;7.10;3.90;;;;;;;12.60;77.77;102083.16;5031303;28;20438;-47
2022/06/14 02:16:48;;;;;;;7.80;4.30;;;;;;;12.59;78.13;102086.84;5031146;28;20476;-49
2022/06/14 02:19:21;;;;;;;7.40;4.50;;;;;;;12.56;77.92;102080.00;5031096;28;20491;-46
2022/06/14 02:21:53;;;;;;;5.40;4.03;;;;;;;12.56;78.49;102088.03;5034380;28;20448;-44
2022/06/14 02:24:27;;;;;;;9.93;5.10;;;;;;;12.55;78.65;102091.69;5034782;28;20451;-44
2022/06/14 02:27:00;;;;;;;7.57;4.37;;;;;;;12.54;78.97;102089.22;5034630;28;20439;-44
2022/06/14 02:29:32;;;;;;;8.10;4.57;;;;;;;12.53;79.00;102088.38;5034317;28;20444;-50
2022/06/14 02:32:04;;;;;;;8.60;4.00;;;;;;;12.54;79.30;102092.72;5032738;28;20483;-48
2022/06/14 02:34:37;;;;;;;11.13;5.10;;;;;;;12.52;79.62;102088.53;5022260;28;20429;-46
2022/06/14 02:37:10;;;;;;;6.20;4.50;;;;;;;12.51;79.36;102087.72;5014248;28;20484;-48
2022/06/14 02:39:43;;;;;;;7.57;4.37;;;;;;;12.53;80.18;102090.22;5014709;28;20803;-47
2022/06/14 02:42:16;;;;;;;7.67;4.20;;;;;;;12.52;80.50;102092.06;5014160;28;20970;-45
2022/06/14 02:44:53;;;;;;;9.40;5.00;;;;;;;12.54;80.48;102084.69;5014556;28;20437;-44
2022/06/14 02:47:26;;;;;;;14.60;4.77;;;;;;;12.55;80.96;102086.34;5013969;28;20976;-46
2022/06/14 02:49:59;;;;;;;15.63;4.80;;;;;;;12.58;81.00;102086.00;5014468;28;20437;-46
2022/06/14 02:52:31;;;;;;;8.77;4.23;;;;;;;12.60;81.20;102088.50;5014107;28;20456;-47
2022/06/14 02:55:05;;;;;;;11.80;5.33;;;;;;;12.61;81.40;102087.47;5014177;28;20421;-45
2022/06/14 02:57:38;;;;;;;13.70;5.53;;;;;;;12.62;81.52;102084.63;5013662;28;20465;-49
2022/06/14 03:00:10;;;;;;;9.70;5.13;;;;;;;12.62;81.69;102090.00;5014082;28;20437;-46
2022/06/14 03:02:41;;;;;;;8.93;5.70;;;;;;;12.62;81.94;102087.31;5014608;28;20978;-44
2022/06/14 03:05:16;;;;;;;17.30;5.93;;;;;;;12.60;81.97;102097.34;5014182;28;20803;-45
2022/06/14 03:07:51;;;;;;;13.20;5.40;;;;;;;12.60;81.99;102099.22;5013539;28;20468;-45
2022/06/14 03:10:20;;;;;;;7.13;4.50;;;;;;;12.60;82.17;102086.63;5012281;28;20437;-45
2022/06/14 03:12:59;;;;;;;7.97;4.23;;;;;;;12.59;82.19;102094.88;5013620;28;20468;-47
2022/06/14 03:15:33;;;;;;;6.43;4.93;;;;;;;12.54;82.12;102092.72;5030132;23;20433;-44
2022/06/14 03:18:09;;;;;;;16.10;6.07;;;;;;;12.52;82.62;102081.34;5000936;28;20466;-43
2022/06/14 03:20:47;;;;;;;8.90;4.80;;;;;;;12.53;82.31;102088.38;4974578;28;20802;-44
2022/06/14 03:23:25;;;;;;;9.53;4.60;;;;;;;12.55;82.48;102080.16;4974966;28;20439;-47
2022/06/14 03:26:02;;;;;;;11.30;5.00;;;;;;;12.57;82.94;102083.50;4974802;28;20447;-43
2022/06/14 03:28:38;;;;;;;11.57;4.67;;;;;;;12.56;82.80;102071.13;4974346;28;20475;-43
2022/06/14 03:31:10;;;;;;;11.90;5.07;;;;;;;12.60;82.50;102081.28;4975754;28;20435;-44
2022/06/14 03:33:44;;;;;;;9.47;5.37;;;;;;;12.63;82.61;102083.59;4986930;28;20434;-44
2022/06/14 03:36:11;;;;;;;9.80;5.63;;;;;;;12.67;82.85;102079.56;4994248;28;20482;-43
2022/06/14 03:38:45;;;;;;;10.67;5.27;;;;;;;12.74;83.19;102080.53;4994698;28;20466;-47
2022/06/14 03:41:19;;;;;;;11.67;5.97;;;;;;;12.75;82.59;102084.88;4994371;28;20426;-47
2022/06/14 03:43:47;;;;;;;12.27;5.20;;;;;;;12.80;82.28;102086.19;4994488;28;20438;-47
2022/06/14 03:46:26;;;;;;;10.47;5.97;;;;;;;12.81;82.06;102088.69;4994611;28;20454;-44
2022/06/14 03:48:58;;;;;;;8.50;4.90;;;;;;;12.83;81.79;102085.84;4993801;28;20832;-45
2022/06/14 03:51:39;;;;;;;12.90;4.80;;;;;;;12.77;81.55;102077.50;4993965;28;20430;-45
2022/06/14 03:54:23;;;;;;;12.93;4.90;;;;;;;12.69;81.51;102082.09;4993990;28;20931;-46
2022/06/14 03:57:24;;;;;;;10.93;5.10;;;;;;;12.66;81.31;102083.25;4993994;28;20478;-44
2022/06/14 04:00:06;;;;;;;10.83;5.70;;;;;;;12.64;81.44;102085.28;4993822;28;20501;-45
2022/06/14 04:02:56;;;;;;;11.23;5.03;;;;;;;12.62;81.57;102081.97;4994032;28;20541;-46
2022/06/14 04:05:39;;;;;;;10.50;5.37;;;;;;;12.63;81.63;102080.94;4993981;28;20458;-46
2022/06/14 04:08:17;;;;;;;11.17;5.10;;;;;;;12.68;81.81;102086.59;4993378;28;20462;-43
2022/06/14 04:10:49;;;;;;;12.03;5.30;;;;;;;12.79;82.06;102085.34;4993396;28;20433;-46
2022/06/14 04:13:28;;;;;;;8.47;5.33;;;;;;;13.00;82.59;102090.88;4993691;28;20444;-43
2022/06/14 04:16:00;;;;;;;8.10;4.63;;;;;;;13.08;82.31;102096.19;4993154;28;20461;-43
2022/06/14 04:18:38;;;;;;;10.93;5.10;;;;;;;13.17;81.51;102091.63;4992473;28;20541;-42
2022/06/14 04:21:25;;;;;;;12.43;5.80;;;;;;;13.37;81.84;102094.63;4993038;28;21074;-45
2022/06/14 04:23:58;;;;;;;10.93;5.23;;;;;;;13.68;81.93;102093.44;4992923;28;20441;-44
2022/06/14 04:26:33;;;;;;;13.53;5.83;;;;;;;13.93;80.76;102095.84;4992911;28;20470;-44
2022/06/14 04:29:10;;;;;;;10.00;5.57;;;;;;;14.84;81.99;102085.41;4992399;28;20455;-49
2022/06/14 04:31:42;;;;;;;12.63;5.63;;;;;;;16.31;83.44;102083.31;4992599;28;20426;-43
2022/06/14 04:34:15;;;;;;;12.70;6.07;;;;;;;17.09;77.96;102087.22;4992789;28;20452;-44
2022/06/14 04:36:54;;;;;;;12.27;5.17;;;;;;;17.76;63.66;102080.78;4992683;28;20481;-44
2022/06/14 04:39:28;;;;;;;8.80;5.53;;;;;;;19.22;63.47;102084.16;4992138;28;20545;-46
2022/06/14 04:42:02;;;;;;;9.77;5.90;;;;;;;20.39;58.46;102080.44;4992094;28;20429;-44
2022/06/14 04:44:39;;;;;;;12.30;6.20;;;;;;;21.15;55.16;102080.53;4993102;28;20436;-47
2022/06/14 04:47:12;;;;;;;9.63;5.77;;;;;;;21.84;49.83;102081.59;4991949;28;20445;-46
2022/06/14 04:49:45;;;;;;;11.30;5.60;;;;;;;22.67;51.29;102078.44;4992692;28;20436;-45
2022/06/14 04:52:18;;;;;;;8.20;5.67;;;;;;;23.13;50.35;102092.56;4992826;28;20429;-44
2022/06/14 04:54:52;;;;;;;5.50;5.00;;;;;;;23.80;49.24;102081.63;4993540;28;20432;-43
2022/06/14 04:57:28;;;;;;;7.67;4.80;;;;;;;24.26;45.18;102077.59;4992354;28;20456;-44
2022/06/14 05:00:03;;;;;;;13.30;4.83;;;;;;;24.88;46.93;102080.72;4992999;28;20810;-44
2022/06/14 05:02:35;;;;;;;13.27;4.80;;;;;;;25.40;42.15;102090.97;4992735;28;20810;-45
2022/06/14 05:05:08;;;;;;;8.83;4.50;;;;;;;25.69;43.56;102090.34;4993286;28;20440;-46
2022/06/14 05:07:41;;;;;;;8.40;5.30;;;;;;;25.98;39.13;102089.97;4993076;28;20480;-44
2022/06/14 05:10:14;;;;;;;6.07;4.43;;;;;;;26.20;43.11;102091.44;4993793;28;20426;-48
2022/06/14 05:12:49;;;;;;;8.00;4.53;;;;;;;26.67;36.93;102087.75;4993579;28;20440;-47
2022/06/14 05:15:22;;;;;;;10.57;5.30;;;;;;;26.45;37.41;102089.88;4993066;28;20480;-48
2022/06/14 05:17:54;;;;;;;10.80;5.53;;;;;;;26.19;37.34;102097.19;4992644;28;20465;-44
2022/06/14 05:20:27;;;;;;;8.50;4.87;;;;;;;26.11;38.18;102097.66;4993260;28;20440;-48
2022/06/14 05:23:02;;;;;;;8.97;5.40;;;;;;;26.39;37.30;102106.28;4993352;28;20441;-45
2022/06/14 05:25:41;;;;;;;7.63;5.40;;;;;;;25.66;34.92;102104.53;4992645;28;20451;-44
2022/06/14 05:28:18;;;;;;;7.20;5.23;;;;;;;25.63;37.14;102101.50;4992774;28;20465;-44
2022/06/14 05:30:54;;;;;;;7.10;4.93;;;;;;;26.16;38.84;102103.19;4992695;28;20784;-44
2022/06/14 05:33:32;;;;;;;11.20;5.60;;;;;;;25.60;36.54;102104.78;4991430;28;20432;-47
2022/06/14 05:36:05;;;;;;;6.10;5.50;;;;;;;23.68;38.38;102108.97;4992827;28;20434;-48
2022/06/14 05:38:42;;;;;;;9.30;4.97;;;;;;;23.20;38.64;102113.38;4992241;28;20479;-45
2022/06/14 05:41:16;;;;;;;7.40;4.97;;;;;;;22.28;42.11;102110.00;4992361;28;20433;-45
2022/06/14 05:43:48;;;;;;;6.00;5.10;;;;;;;21.50;44.56;102111.25;4992746;28;20437;-48
2022/06/14 05:46:25;;;;;;;8.27;5.73;;;;;;;20.53;46.26;102119.00;4992153;28;20441;-45
2022/06/14 05:49:02;;;;;;;14.43;6.43;;;;;;;20.18;47.52;102111.50;4991835;28;20473;-47
2022/06/14 05:51:38;;;;;;;9.27;5.40;;;;;;;19.83;47.65;102113.16;4992099;28;20619;-45
2022/06/14 05:54:13;;;;;;;8.40;5.37;;;;;;;19.29;50.09;102114.66;4992471;28;20433;-48
2022/06/14 05:56:47;;;;;;;7.07;5.63;;;;;;;18.84;50.50;102117.72;4995705;28;20452;-46
2022/06/14 05:59:26;;;;;;;6.83;4.90;;;;;;;18.24;52.15;102119.88;4995213;28;20470;-49
2022/06/14 06:02:02;;;;;;;9.73;5.00;;;;;;;18.03;54.15;102126.38;4996018;28;20429;-48
2022/06/14 06:04:36;;;;;;;8.97;5.90;;;;;;;17.98;54.04;102128.84;4996059;28;20429;-44
2022/06/14 06:07:08;;;;;;;10.70;5.33;;;;;;;17.99;53.38;102129.69;4995590;28;20456;-47
2022/06/14 06:09:40;;;;;;;11.63;5.67;;;;;;;17.82;55.30;102133.91;4996033;28;20424;-43
2022/06/14 06:12:14;;;;;;;5.80;5.13;;;;;;;17.31;55.43;102133.69;4995825;28;20441;-46
2022/06/14 06:14:45;;;;;;;9.63;4.90;;;;;;;17.11;57.63;102144.47;4996010;28;20425;-44
2022/06/14 06:17:18;;;;;;;11.10;4.90;;;;;;;16.98;57.86;102141.75;4995294;28;20471;-47
2022/06/14 06:19:53;;;;;;;6.87;5.00;;;;;;;17.08;58.07;102137.59;4995852;28;20760;-46
2022/06/14 06:22:26;;;;;;;11.53;5.27;;;;;;;17.04;59.47;102149.84;4995804;28;20806;-43
2022/06/14 06:24:58;;;;;;;5.23;4.80;;;;;;;16.98;59.44;102145.28;4995834;28;20468;-46
2022/06/14 06:27:32;;;;;;;7.53;5.10;;;;;;;16.88;58.96;102155.59;4995175;28;20465;-43
2022/06/14 06:30:04;;;;;;;13.80;5.70;;;;;;;16.73;59.26;102154.09;4995661;28;20794;-45
2022/06/14 06:32:33;;;;;;;12.40;5.60;;;;;;;16.67;59.07;102144.97;4994042;28;20438;-43
2022/06/14 06:35:03;;;;;;;8.47;5.63;;;;;;;16.52;59.49;102153.19;4995665;28;20512;-47
2022/06/14 06:37:38;;;;;;;10.33;5.87;;;;;;;16.40;61.38;102148.56;4995004;28;20461;-47
2022/06/14 06:40:11;;;;;;;10.40;6.40;;;;;;;16.42;62.44;102152.75;4995508;28;20443;-46
2022/06/14 06:42:42;;;;;;;10.73;5.03;;;;;;;16.03;63.90;102161.44;4995340;28;20930;-47
2022/06/14 06:45:15;;;;;;;7.67;4.87;;;;;;;16.12;63.66;102159.44;4995512;28;20517;-47
2022/06/14 06:47:49;;;;;;;8.27;5.10;;;;;;;15.90;63.33;102155.97;4995042;28;20468;-46
2022/06/14 06:50:22;;;;;;;6.17;5.00;;;;;;;16.23;63.21;102141.88;4995150;28;20453;-44
2022/06/14 06:52:58;;;;;;;8.37;5.23;;;;;;;16.55;63.17;102143.91;4995160;28;20444;-46
2022/06/14 06:55:37;;;;;;;20.03;7.17;;;;;;;16.96;61.18;102144.66;4995343;28;20447;-46
2022/06/14 06:58:11;;;;;;;7.77;5.27;;;;;;;17.12;60.65;102157.72;4994283;28;20485;-47
2022/06/14 07:00:41;;;;;;;7.70;5.10;;;;;;;17.48;60.46;102153.81;4994376;28;20455;-48
2022/06/14 07:03:21;;;;;;;8.40;4.83;;;;;;;17.36;60.28;102160.84;4994489;28;20440;-46
2022/06/14 07:05:51;;;;;;;6.93;4.97;;;;;;;17.30;61.35;102159.81;4994166;28;20484;-44
2022/06/14 07:08:29;;;;;;;11.30;5.30;;;;;;;17.32;60.23;102160.47;4993927;28;20458;-46
2022/06/14 07:10:58;;;;;;;8.37;5.43;;;;;;;17.55;59.08;102163.59;4994193;28;20452;-44
2022/06/14 07:13:30;;;;;;;8.47;5.67;;;;;;;17.46;60.65;102166.69;4994190;28;20442;-46
2022/06/14 07:16:05;;;;;;;8.40;5.57;;;;;;;17.25;60.37;102178.50;4993818;28;20465;-49
2022/06/14 07:18:43;;;;;;;5.60;4.97;;;;;;;17.31;60.36;102166.88;4993512;28;20998;-45
2022/06/14 07:21:15;;;;;;;10.83;5.40;;;;;;;17.49;60.31;102166.25;4993757;28;20422;-45
2022/06/14 07:23:48;;;;;;;10.40;5.40;;;;;;;17.85;59.12;102169.38;4993833;28;20437;-45
2022/06/14 07:26:23;;;;;;;11.23;5.90;;;;;;;18.34;58.84;102176.13;4993585;28;20450;-50
2022/06/14 07:29:01;;;;;;;8.80;4.93;;;;;;;18.06;57.60;102171.84;4993588;28;20457;-47
2022/06/14 07:31:36;;;;;;;7.30;5.10;;;;;;;17.43;58.23;102169.78;4993724;28;20425;-46
2022/06/14 07:34:07;;;;;;;8.00;6.03;;;;;;;17.29;60.15;102168.13;4993819;28;20830;-46
2022/06/14 07:36:53;;;;;;;4.90;4.47;;;;;;;17.41;59.12;102171.88;4993714;28;20445;-44
2022/06/14 07:39:27;;;;;;;6.90;5.57;;;;;;;17.84;59.70;102167.72;4993225;28;20894;-46
2022/06/14 07:42:01;;;;;;;6.40;4.73;;;;;;;18.58;58.77;102159.22;4993715;28;20425;-48
2022/06/14 07:44:32;;;;;;;8.83;4.53;;;;;;;19.27;56.22;102162.75;4993800;28;20452;-47
2022/06/14 07:47:06;;;;;;;5.33;4.80;;;;;;;19.77;52.15;102152.75;4993010;28;20454;-50
2022/06/14 07:49:52;;;;;;;11.13;5.20;;;;;;;20.27;52.02;102149.97;4993759;28;20430;-47
2022/06/14 07:52:26;;;;;;;10.77;5.03;;;;;;;20.62;49.94;102152.88;4993492;28;20433;-47
2022/06/14 07:55:00;;;;;;;6.20;5.57;;;;;;;20.61;49.22;102154.75;4993532;28;20508;-46
2022/06/14 07:57:32;;;;;;;10.93;5.60;;;;;;;20.55;52.98;102149.44;4992829;28;20883;-44
2022/06/14 08:02:49;;;;;;;9.73;4.87;;;;;;;20.60;51.42;102141.44;4992421;28;20437;-47
2022/06/14 08:05:22;;;;;;;8.20;4.83;;;;;;;19.94;52.12;102158.44;4993407;28;20425;-46
2022/06/14 08:07:55;;;;;;;7.67;5.07;;;;;;;20.50;51.60;102149.28;4992610;28;20465;-46
2022/06/14 08:10:30;;;;;;;5.47;4.97;;;;;;;20.46;51.44;102153.50;4992961;28;20425;-47
2022/06/14 08:13:02;;;;;;;7.77;5.00;;;;;;;19.99;51.52;102164.00;4993067;28;21057;-44
2022/06/14 08:15:35;;;;;;;5.77;4.73;;;;;;;20.29;52.66;102158.69;4992954;28;20437;-48
2022/06/14 08:18:06;;;;;;;4.47;4.20;;;;;;;20.55;50.87;102152.16;4991952;28;20476;-45
2022/06/14 08:20:38;;;;;;;5.70;4.40;;;;;;;20.33;51.11;102160.75;4992738;28;20432;-47
2022/06/14 08:23:11;;;;;;;8.33;5.07;;;;;;;20.23;52.42;102163.13;4993157;28;20441;-46
2022/06/14 08:25:45;;;;;;;5.20;4.40;;;;;;;19.99;51.06;102161.28;4992927;28;20464;-48
2022/06/14 08:28:18;;;;;;;5.13;4.83;;;;;;;20.18;51.55;102159.44;4992561;28;20469;-47
2022/06/14 08:30:50;;;;;;;5.93;4.80;;;;;;;20.21;52.44;102161.69;4992561;28;20434;-46
2022/06/14 08:33:23;;;;;;;4.93;4.20;;;;;;;19.50;53.30;102170.31;4991532;28;20441;-47
2022/06/14 08:35:56;;;;;;;6.53;4.67;;;;;;;19.46;54.07;102174.50;4992824;28;20449;-46
2022/06/14 08:38:31;;;;;;;4.80;4.40;;;;;;;19.37;55.33;102175.78;4992204;28;21016;-45
2022/06/14 08:41:13;;;;;;;6.97;4.70;;;;;;;19.06;55.62;102170.38;4992487;28;20806;-44
2022/06/14 08:43:46;;;;;;;6.70;5.30;;;;;;;18.97;57.53;102177.91;4992877;28;20441;-45
2022/06/14 08:46:27;;;;;;;6.30;4.00;;;;;;;19.20;55.19;102175.47;4992737;28;20797;-49
2022/06/14 08:49:10;;;;;;;5.03;4.40;;;;;;;19.93;54.91;102167.59;4992008;28;20998;-44
2022/06/14 08:51:59;;;;;;;9.67;4.00;;;;;;;19.82;53.83;102163.78;4992209;28;20445;-48
2022/06/14 08:55:00;;;;;;;12.93;4.77;;;;;;;20.13;52.99;102167.41;4992491;28;20442;-47
2022/06/14 08:57:55;;;;;;;8.20;3.90;;;;;;;20.07;54.27;102169.13;4992014;28;20464;-46
2022/06/14 09:00:42;;;;;;;7.67;5.30;;;;;;;20.10;52.75;102162.44;4992006;28;20495;-44
2022/06/14 09:03:36;;;;;;;7.90;3.87;;;;;;;20.54;51.44;102164.03;4992470;28;20437;-46
2022/06/14 09:06:35;;;;;;;6.63;4.13;;;;;;;20.62;51.24;102169.97;4992257;28;20827;-47
2022/06/14 09:09:42;;;;;;;4.47;4.00;;;;;;;20.36;51.83;102157.59;4991810;28;20471;-45
2022/06/14 09:12:57;;;;;;;6.00;4.13;;;;;;;19.72;50.17;102173.44;4992102;28;20438;-46
2022/06/14 09:15:54;;;;;;;4.03;3.73;;;;;;;19.45;52.42;102172.84;4992072;28;20472;-46
2022/06/14 09:18:38;;;;;;;5.10;4.10;;;;;;;19.62;52.76;102167.72;4991783;28;20512;-48
2022/06/14 09:21:16;;;;;;;6.73;3.80;;;;;;;19.53;53.34;102169.88;4992011;28;20429;-45
2022/06/14 09:24:11;;;;;;;4.43;4.13;;;;;;;19.49;53.13;102176.75;4992256;28;20439;-46
2022/06/14 09:27:08;;;;;;;8.30;4.87;;;;;;;19.67;53.23;102176.81;4992033;28;20459;-47
2022/06/14 09:30:13;;;;;;;6.23;4.20;;;;;;;18.78;53.39;102182.41;4995116;28;20468;-46
2022/06/14 09:33:13;;;;;;;8.97;3.87;;;;;;;19.15;54.49;102188.84;4996503;28;20439;-47
2022/06/14 09:36:02;;;;;;;5.20;3.67;;;;;;;19.32;52.65;102181.84;4976678;28;20458;-47
2022/06/14 09:39:06;;;;;;;4.20;3.80;;;;;;;19.02;52.79;102185.41;4975992;28;20844;-47
2022/06/14 09:42:10;;;;;;;4.73;3.87;;;;;;;19.07;52.91;102190.97;4947730;28;20433;-53
2022/06/14 09:45:14;;;;;;;8.17;4.33;;;;;;;18.83;54.41;102189.03;4966640;28;20452;-49
2022/06/14 09:48:21;;;;;;;7.90;4.70;;;;;;;18.70;55.34;102179.94;4973097;28;20465;-46
2022/06/14 09:51:37;;;;;;;9.33;4.97;;;;;;;18.89;55.90;102191.69;4974651;28;20434;-48
2022/06/14 09:54:42;;;;;;;6.20;4.53;;;;;;;19.00;54.40;102191.00;4974121;28;20442;-48
2022/06/14 09:57:29;;;;;;;4.70;4.33;;;;;;;19.35;54.52;102184.09;4975886;28;20446;-47
2022/06/14 10:00:15;;;;;;;5.83;4.10;;;;;;;19.56;53.75;102188.34;4976145;28;20485;-52
2022/06/14 10:03:09;;;;;;;5.30;3.73;;;;;;;19.68;53.11;102175.75;4976465;28;20797;-51
2022/06/14 10:05:56;;;;;;;5.00;3.63;;;;;;;19.57;53.15;102192.72;4969322;28;20445;-50
2022/06/14 10:08:42;;;;;;;6.77;4.80;;;;;;;19.64;52.91;102189.97;4975598;28;20500;-50
2022/06/14 10:11:20;;;;;;;5.13;4.00;;;;;;;19.54;50.88;102190.44;4975938;28;20423;-48
2022/06/14 10:14:22;;;;;;;4.93;3.83;;;;;;;19.49;52.56;102195.72;4975870;28;20444;-49
2022/06/14 10:17:16;;;;;;;5.00;4.00;;;;;;;19.43;53.08;102193.03;4975718;28;20472;-48
2022/06/14 10:20:04;;;;;;;5.50;3.80;;;;;;;19.18;52.41;102196.50;4975723;28;20476;-46
2022/06/14 10:22:42;;;;;;;6.50;4.30;;;;;;;18.78;55.11;102198.63;4975696;28;20494;-50
2022/06/14 10:25:18;;;;;;;5.30;4.00;;;;;;;18.59;56.21;102198.69;4975828;28;20800;-46
2022/06/14 10:30:51;;;;;;;5.03;4.27;;;;;;;18.41;58.59;102206.63;4975397;28;20431;-48
2022/06/14 10:33:35;;;;;;;4.60;4.10;;;;;;;18.39;58.97;102195.22;4976048;28;20450;-49
2022/06/14 10:36:37;;;;;;;6.23;4.10;;;;;;;18.49;59.93;102201.84;4975340;28;20457;-46
2022/06/14 10:39:28;;;;;;;5.83;4.53;;;;;;;18.57;60.11;102198.09;4974992;28;20844;-46
2022/06/14 10:42:06;;;;;;;4.47;4.07;;;;;;;18.43;62.14;102202.66;4974766;28;20434;-46
2022/06/14 10:44:41;;;;;;;5.30;4.70;;;;;;;18.14;62.69;102193.22;4975660;28;20430;-50
2022/06/14 10:47:16;;;;;;;8.77;4.83;;;;;;;18.08;63.34;102196.75;4975030;28;20454;-51
2022/06/14 10:50:07;;;;;;;4.73;4.40;;;;;;;18.13;62.69;102201.50;4975244;28;20433;-48
2022/06/14 10:52:52;;;;;;;4.80;4.40;;;;;;;18.12;62.18;102194.47;4974935;28;20439;-46
2022/06/14 10:55:50;;;;;;;4.67;4.40;;;;;;;17.96;64.13;102203.00;4975382;28;20433;-50
2022/06/14 10:58:43;;;;;;;9.53;4.53;;;;;;;18.13;64.24;102205.03;4973316;28;20469;-52
2022/06/14 11:01:24;;;;;;;6.50;4.53;;;;;;;18.22;63.57;102197.53;4975052;28;20477;-49
2022/06/14 11:04:00;;;;;;;6.77;5.00;;;;;;;18.31;63.63;102209.75;4975243;28;20530;-49
2022/06/14 11:06:55;;;;;;;5.13;4.73;;;;;;;18.32;63.65;102203.34;4974942;28;20545;-49
2022/06/14 11:09:34;;;;;;;4.70;4.30;;;;;;;18.15;62.47;102188.63;4974487;28;20470;-47
2022/06/14 11:12:22;;;;;;;6.10;4.70;;;;;;;18.25;63.87;102197.94;4974828;28;20431;-46
2022/06/14 11:15:02;;;;;;;5.70;4.90;;;;;;;18.77;63.14;102191.56;4974972;28;20426;-49
2022/06/14 11:17:57;;;;;;;5.60;5.17;;;;;;;19.22;62.53;102194.22;4974102;28;20828;-46
2022/06/14 11:20:37;;;;;;;6.00;4.83;;;;;;;19.28;60.74;102196.03;4974617;28;20478;-47
2022/06/14 11:23:11;;;;;;;6.17;5.13;;;;;;;19.42;58.32;102199.50;4974726;28;21050;-47
2022/06/14 11:25:47;;;;;;;5.53;5.10;;;;;;;19.53;58.20;102201.50;4974669;28;20814;-48
2022/06/14 11:28:24;;;;;;;7.50;4.77;;;;;;;19.40;57.45;102197.03;4974289;28;20477;-47
2022/06/14 11:31:04;;;;;;;4.73;4.40;;;;;;;19.35;57.51;102189.50;4974488;28;20427;-47
2022/06/14 11:33:49;;;;;;;5.67;4.00;;;;;;;19.42;58.56;102199.50;4993918;28;20433;-49
2022/06/14 11:36:38;;;;;;;6.03;5.60;;;;;;;19.46;59.45;102195.31;4993541;28;20990;-45
2022/06/14 11:39:18;;;;;;;4.97;4.60;;;;;;;19.81;57.70;102199.16;4993384;28;20484;-47
2022/06/14 11:41:48;;;;;;;6.40;4.70;;;;;;;19.91;56.58;102198.66;4993699;28;20473;-46
2022/06/14 11:44:41;;;;;;;7.43;5.17;;;;;;;19.97;56.03;102200.47;4993894;28;20441;-52
2022/06/14 11:47:18;;;;;;;5.10;4.33;;;;;;;20.20;57.32;102192.53;4993289;28;20453;-50
2022/06/14 11:49:53;;;;;;;6.80;4.73;;;;;;;20.32;56.71;102198.88;4993842;28;20429;-51
2022/06/14 11:52:42;;;;;;;7.50;4.90;;;;;;;20.21;55.69;102181.47;4992481;28;20436;-53
2022/06/14 11:55:24;;;;;;;8.87;5.10;;;;;;;20.25;55.92;102190.81;4993377;28;20434;-48
2022/06/14 11:58:01;;;;;;;5.80;4.33;;;;;;;20.07;56.36;102190.78;4992909;28;20997;-47
2022/06/14 12:00:43;;;;;;;5.37;4.90;;;;;;;20.64;56.23;102188.72;4993225;28;20477;-45
2022/06/14 12:03:36;;;;;;;3.93;3.63;;;;;;;20.33;52.54;102197.84;4993230;28;20520;-46
2022/06/14 12:06:11;;;;;;;3.77;3.57;;;;;;;20.14;53.80;102185.31;4993134;28;20484;-50
2022/06/14 12:09:17;;;;;;;6.03;4.27;;;;;;;20.33;53.63;102193.25;4993015;28;20461;-47
2022/06/14 12:11:54;;;;;;;3.80;3.60;;;;;;;20.34;52.37;102189.47;4993013;28;20432;-46
2022/06/14 12:14:36;;;;;;;5.53;3.50;;;;;;;20.34;53.55;102192.19;4993406;28;20805;-49
2022/06/14 12:17:17;;;;;;;3.90;3.70;;;;;;;20.42;52.90;102191.06;4992586;28;20461;-50
2022/06/14 12:19:52;;;;;;;3.87;3.50;;;;;;;20.44;53.74;102197.06;4993062;28;20429;-51
2022/06/14 12:22:28;;;;;;;3.90;3.70;;;;;;;20.60;53.07;102187.50;4992747;28;20482;-46
2022/06/14 12:27:52;;;;;;;3.60;3.40;;;;;;;20.76;53.46;102187.69;4992556;28;20461;-50
2022/06/14 12:30:19;;;;;;;4.57;4.30;;;;;;;21.21;52.08;102182.69;4992707;28;20434;-46
2022/06/14 12:32:57;;;;;;;4.20;3.90;;;;;;;20.70;51.61;102180.47;4991335;28;20452;-48